ADDS METAR Data INFO
IDs: Format: Raw Decoded Include TAF

Data at: 2018 UTC 25 Apr 2018

METAR for:KFDY (Findlay Arpt, OH, US)
Text:KFDY 251953Z AUTO 33009KT 10SM SCT032 SCT041 BKN055 18/08 A2991 RMK AO2 SLP124 T01780078 $
Temperature: 17.8°C ( 64°F)
Dewpoint: 7.8°C ( 46°F) [RH = 52%]
Pressure (altimeter):29.91 inches Hg (1013.0 mb) [Sea level pressure: 1012.4 mb]
Winds:from the NNW (330 degrees) at 10 MPH (9 knots; 4.6 m/s)
Visibility:10 or more sm (16+ km)
Ceiling:5500 feet AGL
Clouds: scattered clouds at 3200 feet AGL, scattered clouds at 4100 feet AGL, broken clouds at 5500 feet AGL
QC Flag:automated observation with no human augmentation; SOME DATA ABOVE MAY BE INACCURATE!!!"$" is an indication the sensor requires maintenance.